sensor_id;sensor_type;location;lat;lon;timestamp;P1;durP1;ratioP1;P2;durP2;ratioP2
31872;SDS011;22407;42.820;23.374;2023-07-13T00:02:02;13.07;;;8.30;;
31872;SDS011;22407;42.820;23.374;2023-07-13T00:04:27;12.60;;;8.23;;
31872;SDS011;22407;42.820;23.374;2023-07-13T00:06:53;13.73;;;8.60;;
31872;SDS011;22407;42.820;23.374;2023-07-13T00:09:19;13.93;;;8.13;;
31872;SDS011;22407;42.820;23.374;2023-07-13T00:11:45;13.32;;;8.10;;
31872;SDS011;22407;42.820;23.374;2023-07-13T00:14:12;13.93;;;8.10;;
31872;SDS011;22407;42.820;23.374;2023-07-13T00:16:39;13.63;;;8.20;;
31872;SDS011;22407;42.820;23.374;2023-07-13T00:19:05;13.60;;;8.10;;
31872;SDS011;22407;42.820;23.374;2023-07-13T00:21:31;12.97;;;8.43;;
31872;SDS011;22407;42.820;23.374;2023-07-13T00:23:56;13.88;;;8.15;;
31872;SDS011;22407;42.820;23.374;2023-07-13T00:26:22;14.87;;;8.53;;
31872;SDS011;22407;42.820;23.374;2023-07-13T00:28:47;13.60;;;8.18;;
31872;SDS011;22407;42.820;23.374;2023-07-13T00:31:13;13.07;;;8.13;;
31872;SDS011;22407;42.820;23.374;2023-07-13T00:33:39;16.75;;;8.32;;
31872;SDS011;22407;42.820;23.374;2023-07-13T00:36:05;13.75;;;8.35;;
31872;SDS011;22407;42.820;23.374;2023-07-13T00:38:31;14.13;;;8.00;;
31872;SDS011;22407;42.820;23.374;2023-07-13T00:40:56;13.10;;;8.13;;
31872;SDS011;22407;42.820;23.374;2023-07-13T00:43:22;14.23;;;8.70;;
31872;SDS011;22407;42.820;23.374;2023-07-13T00:48:17;13.63;;;8.23;;
31872;SDS011;22407;42.820;23.374;2023-07-13T00:50:44;13.02;;;8.45;;
31872;SDS011;22407;42.820;23.374;2023-07-13T00:53:09;14.68;;;8.30;;
31872;SDS011;22407;42.820;23.374;2023-07-13T00:55:36;13.73;;;8.32;;
31872;SDS011;22407;42.820;23.374;2023-07-13T00:58:02;14.52;;;8.60;;
31872;SDS011;22407;42.820;23.374;2023-07-13T01:00:29;15.77;;;8.60;;
31872;SDS011;22407;42.820;23.374;2023-07-13T01:02:55;14.03;;;8.57;;
31872;SDS011;22407;42.820;23.374;2023-07-13T01:05:21;15.43;;;8.30;;
31872;SDS011;22407;42.820;23.374;2023-07-13T01:07:47;13.68;;;8.48;;
31872;SDS011;22407;42.820;23.374;2023-07-13T01:10:13;12.88;;;8.30;;
31872;SDS011;22407;42.820;23.374;2023-07-13T01:12:38;14.63;;;8.10;;
31872;SDS011;22407;42.820;23.374;2023-07-13T01:15:04;13.57;;;8.02;;
31872;SDS011;22407;42.820;23.374;2023-07-13T01:17:31;13.50;;;8.43;;
31872;SDS011;22407;42.820;23.374;2023-07-13T01:19:56;14.70;;;8.35;;
31872;SDS011;22407;42.820;23.374;2023-07-13T01:22:21;14.30;;;8.43;;
31872;SDS011;22407;42.820;23.374;2023-07-13T01:24:51;13.32;;;8.40;;
31872;SDS011;22407;42.820;23.374;2023-07-13T01:27:20;14.07;;;7.90;;
31872;SDS011;22407;42.820;23.374;2023-07-13T01:29:46;14.23;;;8.17;;
31872;SDS011;22407;42.820;23.374;2023-07-13T01:32:17;13.90;;;8.73;;
31872;SDS011;22407;42.820;23.374;2023-07-13T01:34:47;13.60;;;8.23;;
31872;SDS011;22407;42.820;23.374;2023-07-13T01:37:13;14.93;;;8.23;;
31872;SDS011;22407;42.820;23.374;2023-07-13T01:39:38;13.83;;;8.40;;
31872;SDS011;22407;42.820;23.374;2023-07-13T01:42:03;12.83;;;7.80;;
31872;SDS011;22407;42.820;23.374;2023-07-13T01:44:29;14.57;;;8.00;;
31872;SDS011;22407;42.820;23.374;2023-07-13T01:46:54;14.07;;;8.07;;
31872;SDS011;22407;42.820;23.374;2023-07-13T01:49:19;12.70;;;7.70;;
31872;SDS011;22407;42.820;23.374;2023-07-13T01:51:45;14.05;;;8.10;;
31872;SDS011;22407;42.820;23.374;2023-07-13T01:54:10;13.40;;;8.33;;
31872;SDS011;22407;42.820;23.374;2023-07-13T01:56:36;14.03;;;8.50;;
31872;SDS011;22407;42.820;23.374;2023-07-13T01:59:01;14.57;;;8.30;;
31872;SDS011;22407;42.820;23.374;2023-07-13T02:01:26;13.60;;;8.33;;
31872;SDS011;22407;42.820;23.374;2023-07-13T02:03:52;14.57;;;8.70;;
31872;SDS011;22407;42.820;23.374;2023-07-13T02:06:17;13.60;;;8.87;;
31872;SDS011;22407;42.820;23.374;2023-07-13T02:08:42;13.50;;;8.50;;
31872;SDS011;22407;42.820;23.374;2023-07-13T02:11:07;14.80;;;8.60;;
31872;SDS011;22407;42.820;23.374;2023-07-13T02:13:33;14.97;;;8.40;;
31872;SDS011;22407;42.820;23.374;2023-07-13T02:15:58;14.65;;;8.32;;
31872;SDS011;22407;42.820;23.374;2023-07-13T02:18:23;12.80;;;8.40;;
31872;SDS011;22407;42.820;23.374;2023-07-13T02:20:49;15.17;;;8.50;;
31872;SDS011;22407;42.820;23.374;2023-07-13T02:23:15;14.70;;;8.60;;
31872;SDS011;22407;42.820;23.374;2023-07-13T02:25:40;14.13;;;8.87;;
31872;SDS011;22407;42.820;23.374;2023-07-13T02:28:06;13.70;;;8.35;;
31872;SDS011;22407;42.820;23.374;2023-07-13T02:30:31;13.00;;;8.30;;
31872;SDS011;22407;42.820;23.374;2023-07-13T02:32:57;13.93;;;8.57;;
31872;SDS011;22407;42.820;23.374;2023-07-13T02:35:22;13.93;;;8.48;;
31872;SDS011;22407;42.820;23.374;2023-07-13T02:37:47;12.87;;;8.50;;
31872;SDS011;22407;42.820;23.374;2023-07-13T02:40:13;13.73;;;8.50;;
31872;SDS011;22407;42.820;23.374;2023-07-13T02:42:38;13.73;;;8.33;;
31872;SDS011;22407;42.820;23.374;2023-07-13T02:45:04;14.70;;;8.30;;
31872;SDS011;22407;42.820;23.374;2023-07-13T02:47:31;15.37;;;8.10;;
31872;SDS011;22407;42.820;23.374;2023-07-13T02:49:56;16.50;;;8.65;;
31872;SDS011;22407;42.820;23.374;2023-07-13T02:52:22;15.97;;;8.73;;
31872;SDS011;22407;42.820;23.374;2023-07-13T02:54:47;17.30;;;9.10;;
31872;SDS011;22407;42.820;23.374;2023-07-13T02:57:12;15.40;;;8.57;;
31872;SDS011;22407;42.820;23.374;2023-07-13T02:59:37;14.97;;;8.60;;
31872;SDS011;22407;42.820;23.374;2023-07-13T03:02:03;14.00;;;8.67;;
31872;SDS011;22407;42.820;23.374;2023-07-13T03:04:28;15.47;;;8.80;;
31872;SDS011;22407;42.820;23.374;2023-07-13T03:06:54;14.80;;;8.82;;
31872;SDS011;22407;42.820;23.374;2023-07-13T03:09:22;16.30;;;9.10;;
31872;SDS011;22407;42.820;23.374;2023-07-13T03:11:48;13.07;;;8.30;;
31872;SDS011;22407;42.820;23.374;2023-07-13T03:14:13;15.20;;;8.83;;
31872;SDS011;22407;42.820;23.374;2023-07-13T03:16:38;14.33;;;8.90;;
31872;SDS011;22407;42.820;23.374;2023-07-13T03:19:04;13.80;;;8.38;;
31872;SDS011;22407;42.820;23.374;2023-07-13T03:21:30;13.97;;;8.33;;
31872;SDS011;22407;42.820;23.374;2023-07-13T03:23:55;12.03;;;7.77;;
31872;SDS011;22407;42.820;23.374;2023-07-13T03:26:20;12.90;;;8.27;;
31872;SDS011;22407;42.820;23.374;2023-07-13T03:28:46;14.67;;;8.50;;
31872;SDS011;22407;42.820;23.374;2023-07-13T03:31:12;15.10;;;8.27;;
31872;SDS011;22407;42.820;23.374;2023-07-13T03:33:38;16.08;;;8.50;;
31872;SDS011;22407;42.820;23.374;2023-07-13T03:36:04;17.67;;;8.88;;
31872;SDS011;22407;42.820;23.374;2023-07-13T03:38:30;14.43;;;8.50;;
31872;SDS011;22407;42.820;23.374;2023-07-13T03:40:55;13.40;;;8.00;;
31872;SDS011;22407;42.820;23.374;2023-07-13T03:43:20;14.00;;;8.23;;
31872;SDS011;22407;42.820;23.374;2023-07-13T03:45:46;12.90;;;8.00;;
31872;SDS011;22407;42.820;23.374;2023-07-13T03:48:12;15.97;;;8.17;;
31872;SDS011;22407;42.820;23.374;2023-07-13T03:50:37;17.77;;;8.90;;
31872;SDS011;22407;42.820;23.374;2023-07-13T03:53:03;16.25;;;8.40;;
31872;SDS011;22407;42.820;23.374;2023-07-13T03:55:29;14.67;;;8.40;;
31872;SDS011;22407;42.820;23.374;2023-07-13T03:57:58;16.70;;;8.70;;
31872;SDS011;22407;42.820;23.374;2023-07-13T04:00:23;20.50;;;8.88;;
31872;SDS011;22407;42.820;23.374;2023-07-13T04:02:48;21.77;;;8.77;;
31872;SDS011;22407;42.820;23.374;2023-07-13T04:05:14;18.70;;;8.45;;
31872;SDS011;22407;42.820;23.374;2023-07-13T04:07:40;16.70;;;8.20;;
31872;SDS011;22407;42.820;23.374;2023-07-13T04:10:05;16.13;;;8.40;;
31872;SDS011;22407;42.820;23.374;2023-07-13T04:12:30;23.85;;;8.45;;
31872;SDS011;22407;42.820;23.374;2023-07-13T04:14:56;16.60;;;8.40;;
31872;SDS011;22407;42.820;23.374;2023-07-13T04:17:21;18.87;;;8.60;;
31872;SDS011;22407;42.820;23.374;2023-07-13T04:19:46;20.10;;;8.60;;
31872;SDS011;22407;42.820;23.374;2023-07-13T04:22:13;17.52;;;8.77;;
31872;SDS011;22407;42.820;23.374;2023-07-13T04:24:39;17.95;;;9.13;;
31872;SDS011;22407;42.820;23.374;2023-07-13T04:27:04;20.20;;;9.67;;
31872;SDS011;22407;42.820;23.374;2023-07-13T04:29:29;18.60;;;9.70;;
31872;SDS011;22407;42.820;23.374;2023-07-13T04:31:55;22.43;;;10.40;;
31872;SDS011;22407;42.820;23.374;2023-07-13T04:34:20;24.27;;;10.37;;
31872;SDS011;22407;42.820;23.374;2023-07-13T04:36:45;20.93;;;10.40;;
31872;SDS011;22407;42.820;23.374;2023-07-13T04:39:11;24.23;;;9.90;;
31872;SDS011;22407;42.820;23.374;2023-07-13T04:41:36;18.97;;;10.20;;
31872;SDS011;22407;42.820;23.374;2023-07-13T04:44:01;19.10;;;10.37;;
31872;SDS011;22407;42.820;23.374;2023-07-13T04:46:28;20.05;;;10.55;;
31872;SDS011;22407;42.820;23.374;2023-07-13T04:48:53;20.87;;;10.77;;
31872;SDS011;22407;42.820;23.374;2023-07-13T04:51:19;21.15;;;10.73;;
31872;SDS011;22407;42.820;23.374;2023-07-13T04:53:44;18.80;;;12.07;;
31872;SDS011;22407;42.820;23.374;2023-07-13T04:56:09;20.80;;;11.33;;
31872;SDS011;22407;42.820;23.374;2023-07-13T04:58:35;19.97;;;10.93;;
31872;SDS011;22407;42.820;23.374;2023-07-13T05:01:04;19.17;;;11.73;;
31872;SDS011;22407;42.820;23.374;2023-07-13T05:03:29;19.98;;;12.05;;
31872;SDS011;22407;42.820;23.374;2023-07-13T05:05:55;21.63;;;12.30;;
31872;SDS011;22407;42.820;23.374;2023-07-13T05:08:21;19.00;;;12.50;;
31872;SDS011;22407;42.820;23.374;2023-07-13T05:10:46;23.00;;;12.90;;
31872;SDS011;22407;42.820;23.374;2023-07-13T05:13:11;19.13;;;12.70;;
31872;SDS011;22407;42.820;23.374;2023-07-13T05:15:37;18.60;;;11.60;;
31872;SDS011;22407;42.820;23.374;2023-07-13T05:18:02;19.83;;;12.53;;
31872;SDS011;22407;42.820;23.374;2023-07-13T05:20:27;28.90;;;12.10;;
31872;SDS011;22407;42.820;23.374;2023-07-13T05:22:53;19.27;;;11.13;;
31872;SDS011;22407;42.820;23.374;2023-07-13T05:25:18;17.07;;;11.50;;
31872;SDS011;22407;42.820;23.374;2023-07-13T05:27:44;17.63;;;11.40;;
31872;SDS011;22407;42.820;23.374;2023-07-13T05:30:10;18.03;;;11.30;;
31872;SDS011;22407;42.820;23.374;2023-07-13T05:32:36;16.38;;;10.85;;
31872;SDS011;22407;42.820;23.374;2023-07-13T05:35:02;17.87;;;11.10;;
31872;SDS011;22407;42.820;23.374;2023-07-13T05:37:27;16.80;;;10.10;;
31872;SDS011;22407;42.820;23.374;2023-07-13T05:39:53;16.38;;;10.30;;
31872;SDS011;22407;42.820;23.374;2023-07-13T05:42:18;16.97;;;10.67;;
31872;SDS011;22407;42.820;23.374;2023-07-13T05:44:43;19.00;;;11.10;;
31872;SDS011;22407;42.820;23.374;2023-07-13T05:47:08;16.90;;;10.97;;
31872;SDS011;22407;42.820;23.374;2023-07-13T05:49:34;17.63;;;10.30;;
31872;SDS011;22407;42.820;23.374;2023-07-13T05:51:59;16.10;;;10.40;;
31872;SDS011;22407;42.820;23.374;2023-07-13T05:54:24;18.43;;;10.80;;
31872;SDS011;22407;42.820;23.374;2023-07-13T05:56:50;19.93;;;11.13;;
31872;SDS011;22407;42.820;23.374;2023-07-13T05:59:15;19.03;;;10.37;;
31872;SDS011;22407;42.820;23.374;2023-07-13T06:01:41;16.17;;;10.03;;
31872;SDS011;22407;42.820;23.374;2023-07-13T06:04:06;16.73;;;10.30;;
31872;SDS011;22407;42.820;23.374;2023-07-13T06:06:32;15.20;;;10.05;;
31872;SDS011;22407;42.820;23.374;2023-07-13T06:08:57;16.97;;;10.60;;
31872;SDS011;22407;42.820;23.374;2023-07-13T06:11:23;16.13;;;10.05;;
31872;SDS011;22407;42.820;23.374;2023-07-13T06:13:49;16.95;;;10.05;;
31872;SDS011;22407;42.820;23.374;2023-07-13T06:16:15;16.77;;;9.83;;
31872;SDS011;22407;42.820;23.374;2023-07-13T06:18:40;16.33;;;10.05;;
31872;SDS011;22407;42.820;23.374;2023-07-13T06:21:07;16.40;;;10.00;;
31872;SDS011;22407;42.820;23.374;2023-07-13T06:23:33;15.63;;;10.15;;
31872;SDS011;22407;42.820;23.374;2023-07-13T06:25:58;16.47;;;10.07;;
31872;SDS011;22407;42.820;23.374;2023-07-13T06:28:23;16.93;;;10.53;;
31872;SDS011;22407;42.820;23.374;2023-07-13T06:30:49;16.80;;;10.00;;
31872;SDS011;22407;42.820;23.374;2023-07-13T06:33:14;15.47;;;9.90;;
31872;SDS011;22407;42.820;23.374;2023-07-13T06:35:39;14.63;;;10.03;;
31872;SDS011;22407;42.820;23.374;2023-07-13T06:38:04;16.70;;;10.17;;
31872;SDS011;22407;42.820;23.374;2023-07-13T06:40:30;21.77;;;10.60;;
31872;SDS011;22407;42.820;23.374;2023-07-13T06:42:56;19.07;;;9.77;;
31872;SDS011;22407;42.820;23.374;2023-07-13T06:45:21;16.43;;;10.20;;
31872;SDS011;22407;42.820;23.374;2023-07-13T06:47:46;63.87;;;12.90;;
31872;SDS011;22407;42.820;23.374;2023-07-13T06:50:12;57.40;;;12.07;;
31872;SDS011;22407;42.820;23.374;2023-07-13T06:52:37;34.53;;;10.73;;
31872;SDS011;22407;42.820;23.374;2023-07-13T06:55:02;58.43;;;12.30;;
31872;SDS011;22407;42.820;23.374;2023-07-13T06:57:28;21.13;;;9.97;;
31872;SDS011;22407;42.820;23.374;2023-07-13T06:59:53;16.40;;;9.70;;
31872;SDS011;22407;42.820;23.374;2023-07-13T07:02:18;16.85;;;9.70;;
31872;SDS011;22407;42.820;23.374;2023-07-13T07:04:44;16.40;;;9.77;;
31872;SDS011;22407;42.820;23.374;2023-07-13T07:07:09;15.73;;;9.57;;
31872;SDS011;22407;42.820;23.374;2023-07-13T07:09:34;15.87;;;9.93;;
31872;SDS011;22407;42.820;23.374;2023-07-13T07:12:00;15.23;;;9.43;;
31872;SDS011;22407;42.820;23.374;2023-07-13T07:14:25;15.30;;;9.53;;
31872;SDS011;22407;42.820;23.374;2023-07-13T07:16:50;15.90;;;9.97;;
31872;SDS011;22407;42.820;23.374;2023-07-13T07:19:16;14.27;;;9.40;;
31872;SDS011;22407;42.820;23.374;2023-07-13T07:21:41;15.67;;;9.17;;
31872;SDS011;22407;42.820;23.374;2023-07-13T07:24:06;14.97;;;9.07;;
31872;SDS011;22407;42.820;23.374;2023-07-13T07:26:32;13.27;;;9.45;;
31872;SDS011;22407;42.820;23.374;2023-07-13T07:28:57;15.30;;;8.67;;
31872;SDS011;22407;42.820;23.374;2023-07-13T07:31:23;18.98;;;9.13;;
31872;SDS011;22407;42.820;23.374;2023-07-13T07:33:48;16.40;;;8.63;;
31872;SDS011;22407;42.820;23.374;2023-07-13T07:36:15;49.85;;;10.15;;
31872;SDS011;22407;42.820;23.374;2023-07-13T07:38:41;17.63;;;8.88;;
31872;SDS011;22407;42.820;23.374;2023-07-13T07:41:06;14.13;;;8.48;;
31872;SDS011;22407;42.820;23.374;2023-07-13T07:43:31;13.47;;;8.77;;
31872;SDS011;22407;42.820;23.374;2023-07-13T07:45:57;14.50;;;8.90;;
31872;SDS011;22407;42.820;23.374;2023-07-13T07:48:22;15.60;;;9.20;;
31872;SDS011;22407;42.820;23.374;2023-07-13T07:50:48;13.83;;;8.97;;
31872;SDS011;22407;42.820;23.374;2023-07-13T07:53:13;14.65;;;9.00;;
31872;SDS011;22407;42.820;23.374;2023-07-13T07:55:39;14.80;;;8.70;;
31872;SDS011;22407;42.820;23.374;2023-07-13T07:58:04;13.47;;;9.00;;
31872;SDS011;22407;42.820;23.374;2023-07-13T08:00:30;13.05;;;8.20;;
31872;SDS011;22407;42.820;23.374;2023-07-13T08:02:56;14.33;;;8.33;;
31872;SDS011;22407;42.820;23.374;2023-07-13T08:05:22;13.43;;;8.37;;
31872;SDS011;22407;42.820;23.374;2023-07-13T08:07:47;13.37;;;8.33;;
31872;SDS011;22407;42.820;23.374;2023-07-13T08:10:12;12.80;;;8.40;;
31872;SDS011;22407;42.820;23.374;2023-07-13T08:12:38;13.30;;;8.20;;
31872;SDS011;22407;42.820;23.374;2023-07-13T08:15:04;14.63;;;8.53;;
31872;SDS011;22407;42.820;23.374;2023-07-13T08:17:30;15.93;;;8.70;;
31872;SDS011;22407;42.820;23.374;2023-07-13T08:19:55;15.80;;;8.63;;
31872;SDS011;22407;42.820;23.374;2023-07-13T08:22:20;15.23;;;8.83;;
31872;SDS011;22407;42.820;23.374;2023-07-13T08:24:45;15.37;;;9.00;;
31872;SDS011;22407;42.820;23.374;2023-07-13T08:27:12;15.25;;;8.77;;
31872;SDS011;22407;42.820;23.374;2023-07-13T08:29:37;15.00;;;8.90;;
31872;SDS011;22407;42.820;23.374;2023-07-13T08:32:04;12.77;;;9.03;;
31872;SDS011;22407;42.820;23.374;2023-07-13T08:34:29;15.05;;;8.77;;
31872;SDS011;22407;42.820;23.374;2023-07-13T08:36:55;15.00;;;9.00;;
31872;SDS011;22407;42.820;23.374;2023-07-13T08:39:20;14.50;;;8.87;;
31872;SDS011;22407;42.820;23.374;2023-07-13T08:41:49;15.53;;;8.77;;
31872;SDS011;22407;42.820;23.374;2023-07-13T08:44:21;16.77;;;8.97;;
31872;SDS011;22407;42.820;23.374;2023-07-13T08:46:53;15.30;;;8.73;;
31872;SDS011;22407;42.820;23.374;2023-07-13T08:49:21;17.30;;;9.10;;
31872;SDS011;22407;42.820;23.374;2023-07-13T08:51:55;14.88;;;8.98;;
31872;SDS011;22407;42.820;23.374;2023-07-13T08:56:47;15.67;;;8.77;;
31872;SDS011;22407;42.820;23.374;2023-07-13T08:59:16;15.50;;;8.73;;
31872;SDS011;22407;42.820;23.374;2023-07-13T09:04:14;13.73;;;8.90;;
31872;SDS011;22407;42.820;23.374;2023-07-13T09:09:10;13.25;;;7.50;;
31872;SDS011;22407;42.820;23.374;2023-07-13T09:11:50;14.63;;;7.35;;
31872;SDS011;22407;42.820;23.374;2023-07-13T09:14:31;14.32;;;7.90;;
31872;SDS011;22407;42.820;23.374;2023-07-13T09:16:58;12.47;;;7.23;;
31872;SDS011;22407;42.820;23.374;2023-07-13T09:19:26;13.75;;;7.30;;
31872;SDS011;22407;42.820;23.374;2023-07-13T09:21:53;11.10;;;6.50;;
31872;SDS011;22407;42.820;23.374;2023-07-13T09:27:13;11.75;;;6.60;;
31872;SDS011;22407;42.820;23.374;2023-07-13T09:29:42;11.60;;;6.68;;
31872;SDS011;22407;42.820;23.374;2023-07-13T09:32:09;10.85;;;6.40;;
31872;SDS011;22407;42.820;23.374;2023-07-13T09:34:37;12.95;;;6.53;;
31872;SDS011;22407;42.820;23.374;2023-07-13T09:37:03;11.17;;;6.30;;
31872;SDS011;22407;42.820;23.374;2023-07-13T09:43:10;10.82;;;6.18;;
31872;SDS011;22407;42.820;23.374;2023-07-13T09:49:11;11.63;;;6.23;;
31872;SDS011;22407;42.820;23.374;2023-07-13T09:51:45;11.40;;;6.45;;
31872;SDS011;22407;42.820;23.374;2023-07-13T09:54:33;13.00;;;6.38;;
31872;SDS011;22407;42.820;23.374;2023-07-13T09:57:03;11.47;;;6.17;;
31872;SDS011;22407;42.820;23.374;2023-07-13T09:59:29;11.55;;;6.47;;
31872;SDS011;22407;42.820;23.374;2023-07-13T10:01:55;11.83;;;6.20;;
31872;SDS011;22407;42.820;23.374;2023-07-13T10:04:26;11.02;;;6.18;;
31872;SDS011;22407;42.820;23.374;2023-07-13T10:06:51;10.05;;;6.13;;
31872;SDS011;22407;42.820;23.374;2023-07-13T10:09:29;12.35;;;5.78;;
31872;SDS011;22407;42.820;23.374;2023-07-13T10:11:54;12.27;;;5.90;;
31872;SDS011;22407;42.820;23.374;2023-07-13T10:14:20;12.07;;;5.70;;
31872;SDS011;22407;42.820;23.374;2023-07-13T10:16:48;12.85;;;5.45;;
31872;SDS011;22407;42.820;23.374;2023-07-13T10:19:19;10.70;;;5.85;;
31872;SDS011;22407;42.820;23.374;2023-07-13T10:21:53;11.70;;;5.60;;
31872;SDS011;22407;42.820;23.374;2023-07-13T10:24:27;12.98;;;5.90;;
31872;SDS011;22407;42.820;23.374;2023-07-13T10:29:25;11.13;;;5.82;;
31872;SDS011;22407;42.820;23.374;2023-07-13T10:31:52;9.48;;;5.38;;
31872;SDS011;22407;42.820;23.374;2023-07-13T10:34:17;11.73;;;5.80;;
31872;SDS011;22407;42.820;23.374;2023-07-13T10:36:43;12.48;;;5.65;;
31872;SDS011;22407;42.820;23.374;2023-07-13T10:39:13;9.25;;;5.38;;
31872;SDS011;22407;42.820;23.374;2023-07-13T10:41:40;9.25;;;5.35;;
31872;SDS011;22407;42.820;23.374;2023-07-13T10:44:09;8.32;;;5.35;;
31872;SDS011;22407;42.820;23.374;2023-07-13T10:46:41;9.48;;;5.28;;
31872;SDS011;22407;42.820;23.374;2023-07-13T10:49:08;9.33;;;5.30;;
31872;SDS011;22407;42.820;23.374;2023-07-13T10:51:35;10.30;;;5.68;;
31872;SDS011;22407;42.820;23.374;2023-07-13T10:56:35;12.07;;;5.53;;
31872;SDS011;22407;42.820;23.374;2023-07-13T10:59:01;10.13;;;5.65;;
31872;SDS011;22407;42.820;23.374;2023-07-13T11:01:27;10.43;;;5.45;;
31872;SDS011;22407;42.820;23.374;2023-07-13T11:04:03;10.18;;;5.65;;
31872;SDS011;22407;42.820;23.374;2023-07-13T11:06:38;17.77;;;6.33;;
31872;SDS011;22407;42.820;23.374;2023-07-13T11:09:24;10.98;;;5.78;;
31872;SDS011;22407;42.820;23.374;2023-07-13T11:11:55;11.23;;;5.80;;
31872;SDS011;22407;42.820;23.374;2023-07-13T11:16:46;11.03;;;6.03;;
31872;SDS011;22407;42.820;23.374;2023-07-13T11:22:03;10.68;;;5.88;;
31872;SDS011;22407;42.820;23.374;2023-07-13T11:24:28;10.80;;;5.70;;
31872;SDS011;22407;42.820;23.374;2023-07-13T11:26:55;11.50;;;5.70;;
31872;SDS011;22407;42.820;23.374;2023-07-13T11:31:53;9.13;;;5.25;;
31872;SDS011;22407;42.820;23.374;2023-07-13T11:34:21;10.53;;;5.60;;
31872;SDS011;22407;42.820;23.374;2023-07-13T11:36:49;10.37;;;5.50;;
31872;SDS011;22407;42.820;23.374;2023-07-13T11:41:43;11.50;;;5.50;;
31872;SDS011;22407;42.820;23.374;2023-07-13T11:46:35;12.27;;;6.00;;
31872;SDS011;22407;42.820;23.374;2023-07-13T11:49:00;10.97;;;5.67;;
31872;SDS011;22407;42.820;23.374;2023-07-13T11:51:30;11.47;;;5.80;;
31872;SDS011;22407;42.820;23.374;2023-07-13T11:53:56;11.13;;;5.78;;
31872;SDS011;22407;42.820;23.374;2023-07-13T11:56:22;10.75;;;5.35;;
31872;SDS011;22407;42.820;23.374;2023-07-13T11:58:51;12.47;;;5.80;;
31872;SDS011;22407;42.820;23.374;2023-07-13T12:01:20;10.30;;;5.50;;
31872;SDS011;22407;42.820;23.374;2023-07-13T12:03:46;10.55;;;5.47;;
31872;SDS011;22407;42.820;23.374;2023-07-13T12:06:21;9.73;;;5.75;;
31872;SDS011;22407;42.820;23.374;2023-07-13T12:08:46;10.57;;;5.72;;
31872;SDS011;22407;42.820;23.374;2023-07-13T12:11:16;10.70;;;5.72;;
31872;SDS011;22407;42.820;23.374;2023-07-13T12:13:43;11.18;;;5.70;;
31872;SDS011;22407;42.820;23.374;2023-07-13T12:16:14;10.43;;;5.87;;
31872;SDS011;22407;42.820;23.374;2023-07-13T12:18:40;10.73;;;5.60;;
31872;SDS011;22407;42.820;23.374;2023-07-13T12:21:09;14.38;;;5.80;;
31872;SDS011;22407;42.820;23.374;2023-07-13T12:23:37;26.92;;;7.38;;
31872;SDS011;22407;42.820;23.374;2023-07-13T12:26:03;12.57;;;6.17;;
31872;SDS011;22407;42.820;23.374;2023-07-13T12:30:57;11.10;;;5.57;;
31872;SDS011;22407;42.820;23.374;2023-07-13T12:33:23;13.50;;;5.90;;
31872;SDS011;22407;42.820;23.374;2023-07-13T12:35:50;11.52;;;5.90;;
31872;SDS011;22407;42.820;23.374;2023-07-13T12:38:17;12.57;;;5.82;;
31872;SDS011;22407;42.820;23.374;2023-07-13T12:40:42;11.53;;;5.60;;
31872;SDS011;22407;42.820;23.374;2023-07-13T12:43:11;10.57;;;5.72;;
31872;SDS011;22407;42.820;23.374;2023-07-13T12:45:37;11.43;;;5.35;;
31872;SDS011;22407;42.820;23.374;2023-07-13T12:48:04;11.33;;;5.43;;
31872;SDS011;22407;42.820;23.374;2023-07-13T12:50:34;12.20;;;5.30;;
31872;SDS011;22407;42.820;23.374;2023-07-13T12:53:02;11.57;;;5.35;;
31872;SDS011;22407;42.820;23.374;2023-07-13T12:55:40;10.43;;;5.63;;
31872;SDS011;22407;42.820;23.374;2023-07-13T12:58:06;15.73;;;5.85;;
31872;SDS011;22407;42.820;23.374;2023-07-13T13:00:35;10.43;;;5.55;;
31872;SDS011;22407;42.820;23.374;2023-07-13T13:03:07;11.55;;;5.55;;
31872;SDS011;22407;42.820;23.374;2023-07-13T13:05:39;11.30;;;5.63;;
31872;SDS011;22407;42.820;23.374;2023-07-13T13:08:08;11.77;;;5.57;;
31872;SDS011;22407;42.820;23.374;2023-07-13T13:10:35;11.10;;;5.30;;
31872;SDS011;22407;42.820;23.374;2023-07-13T13:13:01;13.60;;;5.73;;
31872;SDS011;22407;42.820;23.374;2023-07-13T13:15:26;10.53;;;5.67;;
31872;SDS011;22407;42.820;23.374;2023-07-13T13:17:51;11.83;;;6.00;;
31872;SDS011;22407;42.820;23.374;2023-07-13T13:20:20;13.53;;;5.60;;
31872;SDS011;22407;42.820;23.374;2023-07-13T13:22:45;10.95;;;5.30;;
31872;SDS011;22407;42.820;23.374;2023-07-13T13:25:14;11.13;;;5.20;;
31872;SDS011;22407;42.820;23.374;2023-07-13T13:27:42;11.35;;;5.20;;
31872;SDS011;22407;42.820;23.374;2023-07-13T13:30:11;12.35;;;5.25;;
31872;SDS011;22407;42.820;23.374;2023-07-13T13:32:38;12.05;;;5.30;;
31872;SDS011;22407;42.820;23.374;2023-07-13T13:35:04;10.93;;;5.40;;
31872;SDS011;22407;42.820;23.374;2023-07-13T13:37:31;11.65;;;5.30;;
31872;SDS011;22407;42.820;23.374;2023-07-13T13:39:56;11.03;;;5.43;;
31872;SDS011;22407;42.820;23.374;2023-07-13T13:42:21;11.17;;;5.30;;
31872;SDS011;22407;42.820;23.374;2023-07-13T13:44:49;14.75;;;6.65;;
31872;SDS011;22407;42.820;23.374;2023-07-13T13:47:36;12.20;;;5.32;;
31872;SDS011;22407;42.820;23.374;2023-07-13T13:50:01;11.90;;;5.30;;
31872;SDS011;22407;42.820;23.374;2023-07-13T13:52:26;12.35;;;5.20;;
31872;SDS011;22407;42.820;23.374;2023-07-13T13:54:52;12.63;;;5.10;;
31872;SDS011;22407;42.820;23.374;2023-07-13T13:57:22;12.18;;;5.03;;
31872;SDS011;22407;42.820;23.374;2023-07-13T13:59:48;12.18;;;5.50;;
31872;SDS011;22407;42.820;23.374;2023-07-13T14:02:31;11.10;;;5.20;;
31872;SDS011;22407;42.820;23.374;2023-07-13T14:04:58;12.43;;;5.60;;
31872;SDS011;22407;42.820;23.374;2023-07-13T14:07:24;13.80;;;5.57;;
31872;SDS011;22407;42.820;23.374;2023-07-13T14:09:49;10.37;;;5.40;;
31872;SDS011;22407;42.820;23.374;2023-07-13T14:12:15;12.02;;;5.38;;
31872;SDS011;22407;42.820;23.374;2023-07-13T14:14:40;12.30;;;5.50;;
31872;SDS011;22407;42.820;23.374;2023-07-13T14:17:40;11.57;;;5.20;;
31872;SDS011;22407;42.820;23.374;2023-07-13T14:19:58;10.75;;;5.07;;
31872;SDS011;22407;42.820;23.374;2023-07-13T14:22:24;14.03;;;5.27;;
31872;SDS011;22407;42.820;23.374;2023-07-13T14:24:51;14.50;;;5.25;;
31872;SDS011;22407;42.820;23.374;2023-07-13T14:27:17;11.07;;;5.15;;
31872;SDS011;22407;42.820;23.374;2023-07-13T14:29:42;13.23;;;5.07;;
31872;SDS011;22407;42.820;23.374;2023-07-13T14:32:11;12.87;;;5.00;;
31872;SDS011;22407;42.820;23.374;2023-07-13T14:34:36;13.52;;;5.20;;
31872;SDS011;22407;42.820;23.374;2023-07-13T14:37:01;12.73;;;5.30;;
31872;SDS011;22407;42.820;23.374;2023-07-13T14:39:29;12.00;;;5.10;;
31872;SDS011;22407;42.820;23.374;2023-07-13T14:41:55;12.93;;;5.10;;
31872;SDS011;22407;42.820;23.374;2023-07-13T14:44:21;11.23;;;5.00;;
31872;SDS011;22407;42.820;23.374;2023-07-13T14:46:48;10.77;;;5.43;;
31872;SDS011;22407;42.820;23.374;2023-07-13T14:49:27;12.15;;;5.10;;
31872;SDS011;22407;42.820;23.374;2023-07-13T14:51:54;13.80;;;5.40;;
31872;SDS011;22407;42.820;23.374;2023-07-13T14:54:22;11.43;;;5.27;;
31872;SDS011;22407;42.820;23.374;2023-07-13T14:56:48;11.27;;;5.17;;
31872;SDS011;22407;42.820;23.374;2023-07-13T14:59:13;10.60;;;5.20;;